EGJA

Alderney Airport

Saint Anne, Guernsey
METAR EGJA 221720Z 03008KT 9999 FEW030 11/06 Q1037
Observed Flight Rules
Oct-22 @ 17:20 UTC (12 hours ago) Visual Flight Rules
Wind Visibility Clouds
30° at 8 knots 10,000+ meters
  • Few at 3,000' AGL
Temperatures Readings
Current 11°C / 52°F
Dewpoint 6°C / 43°F
Humidity 72%
Altimeter 30.62" Hg
Pressure 1037 hPa
Elevation 71
METAR EGJA 221720Z 03008KT 9999 FEW030 11/06 Q1037
Observed Flight Rules
Oct-22 @ 17:20 UTC
(12 hours ago)
VFR
Wind Visibility
30° at 8 knots 10,000+ meters
Clouds
  • Few at 3,000' AGL
Temperature Dewpoint
11°C / 52°F 6°C / 43°F
Humidity Altimeter Pressure
72% 30.62" Hg 1037 hPa